MUHG/HOG METAR and TAF weather

Enter ICAO airport designator
Station Type Date Time Source
MUHG METAR 2022/07/03 13:50 UTC NOAA

MUHG 031350Z 07013KT 040V100 9999 FEW027 SCT030 29/23 Q1016


Station Type Date Time Source
MUHG Decoded METAR 2022/07/03 13:50 UTC NOAA

Holguin Civ / Mil , Cuba (MUHG) 20-47N 076-19W
Jul 03, 2022 - 09:50 AM EDT / 2022.07.03 1350 UTC
Wind: from the ENE (070 degrees) at 15 MPH (13 KT) (direction variable):0
Visibility: greater than 7 mile(s):0
Sky conditions: partly cloudy
Temperature: 84 F (29 C)
Dew Point: 73 F (23 C)
Relative Humidity: 70%
Pressure (altimeter): 30.00 in. Hg (1016 hPa)
ob: MUHG 031350Z 07013KT 040V100 9999 FEW027 SCT030 29/23 Q1016
cycle: 14

Station Type Date Time Source
MUHG TAF 2022/07/03 12:03 UTC NOAA

TAF MUHG 031100Z 0312/0412 06007KT 9000 SCT020
BECMG 0313/0315 08013KT
TEMPO 0318/0324 VRB10KT 3000 TSRA SCT018CB BKN020
BECMG 0401/0403 VRB03KT

Example: see airport list